Time;durP1;ratioP1;P1;durP2;ratioP2;P2;SDS_P1;SDS_P2;PMS_P1;PMS_P2;Temp;Humidity;BMP_temperature;BMP_pressure;BME280_temperature;BME280_humidity;BME280_pressure;Samples;Min_cycle;Max_cycle;Signal;HPM_P1;HPM_P2
2022/10/25 00:02:09;;;;;;;5.27;4.17;;;;;;;;;;5095470;28;20457;-65
2022/10/25 00:04:36;;;;;;;8.73;5.70;;;;;;;;;;5095684;28;20444;-66
2022/10/25 00:07:03;;;;;;;10.17;4.50;;;;;;;;;;5095814;28;20464;-65
2022/10/25 00:09:30;;;;;;;5.10;3.73;;;;;;;;;;5095452;28;20442;-66
2022/10/25 00:11:58;;;;;;;10.17;5.57;;;;;;;;;;5095531;28;20476;-65
2022/10/25 00:14:25;;;;;;;8.97;4.37;;;;;;;;;;5095498;28;20442;-66
2022/10/25 00:16:52;;;;;;;8.60;4.07;;;;;;;;;;5095253;28;20895;-66
2022/10/25 00:19:20;;;;;;;7.27;4.23;;;;;;;;;;5095454;28;20542;-66
2022/10/25 00:21:48;;;;;;;7.47;4.40;;;;;;;;;;5095465;28;20451;-66
2022/10/25 00:24:15;;;;;;;8.60;4.67;;;;;;;;;;5095122;28;20441;-66
2022/10/25 00:26:42;;;;;;;6.70;3.90;;;;;;;;;;5095542;28;20432;-66
2022/10/25 00:29:09;;;;;;;6.50;3.80;;;;;;;;;;5094926;28;20449;-66
2022/10/25 00:31:37;;;;;;;8.63;4.70;;;;;;;;;;5095142;28;20485;-65
2022/10/25 00:34:05;;;;;;;6.60;4.53;;;;;;;;;;5095176;28;20524;-66
2022/10/25 00:36:33;;;;;;;10.73;4.10;;;;;;;;;;5095199;28;20460;-66
2022/10/25 00:39:01;;;;;;;8.00;3.90;;;;;;;;;;5094812;28;20451;-66
2022/10/25 00:41:29;;;;;;;5.93;3.50;;;;;;;;;;5094966;28;20449;-66
2022/10/25 00:43:57;;;;;;;6.20;3.53;;;;;;;;;;5095178;28;20451;-66
2022/10/25 00:46:25;;;;;;;6.83;3.50;;;;;;;;;;5094887;28;20440;-66
2022/10/25 00:48:54;;;;;;;5.63;4.03;;;;;;;;;;5094517;28;20449;-65
2022/10/25 00:51:22;;;;;;;7.50;3.30;;;;;;;;;;5094387;28;20931;-66
2022/10/25 00:53:51;;;;;;;5.60;3.80;;;;;;;;;;5094508;28;20638;-67
2022/10/25 00:56:21;;;;;;;6.13;3.20;;;;;;;;;;5094597;28;20448;-66
2022/10/25 00:58:51;;;;;;;15.07;4.27;;;;;;;;;;5095176;28;20430;-66
2022/10/25 01:01:18;;;;;;;7.17;3.67;;;;;;;;;;5094503;28;20464;-66
2022/10/25 01:03:46;;;;;;;5.93;3.47;;;;;;;;;;5095082;28;20444;-66
2022/10/25 01:06:18;;;;;;;7.33;2.83;;;;;;;;;;5094635;28;20461;-66
2022/10/25 01:08:46;;;;;;;8.63;3.67;;;;;;;;;;5094312;28;20908;-66
2022/10/25 01:11:14;;;;;;;13.23;5.00;;;;;;;;;;5094308;28;20816;-66
2022/10/25 01:13:42;;;;;;;6.83;3.30;;;;;;;;;;5094075;28;20451;-66
2022/10/25 01:16:11;;;;;;;6.33;3.20;;;;;;;;;;5094591;28;20446;-66
2022/10/25 01:18:44;;;;;;;11.20;4.07;;;;;;;;;;5094285;28;20443;-66
2022/10/25 01:21:27;;;;;;;8.43;3.80;;;;;;;;;;5093970;28;20438;-66
2022/10/25 01:24:03;;;;;;;7.10;3.03;;;;;;;;;;5094940;28;20422;-66
2022/10/25 01:26:48;;;;;;;6.13;3.00;;;;;;;;;;5094254;28;20438;-66
2022/10/25 01:29:26;;;;;;;8.60;3.47;;;;;;;;;;5093904;28;20516;-66
2022/10/25 01:31:56;;;;;;;11.40;3.30;;;;;;;;;;5093665;28;20471;-66
2022/10/25 01:34:27;;;;;;;7.33;4.23;;;;;;;;;;5094098;28;20442;-66
2022/10/25 01:36:58;;;;;;;6.67;3.47;;;;;;;;;;5094077;28;20440;-66
2022/10/25 01:39:27;;;;;;;11.23;4.10;;;;;;;;;;5094493;28;20778;-66
2022/10/25 01:41:59;;;;;;;7.47;3.20;;;;;;;;;;5094057;28;20442;-66
2022/10/25 01:44:32;;;;;;;8.90;3.20;;;;;;;;;;5094405;28;20434;-66
2022/10/25 01:47:02;;;;;;;12.03;3.50;;;;;;;;;;5093944;28;20439;-66
2022/10/25 01:49:32;;;;;;;10.10;3.80;;;;;;;;;;5093943;28;20449;-66
2022/10/25 01:51:59;;;;;;;4.73;3.20;;;;;;;;;;5093692;28;20481;-67
2022/10/25 01:54:27;;;;;;;7.00;3.47;;;;;;;;;;5094161;28;20464;-66
2022/10/25 01:57:06;;;;;;;7.30;3.70;;;;;;;;;;5093383;28;20501;-66
2022/10/25 01:59:54;;;;;;;10.47;4.10;;;;;;;;;;5094328;28;20434;-66
2022/10/25 02:02:25;;;;;;;9.73;4.03;;;;;;;;;;5093778;28;20452;-66
2022/10/25 02:04:58;;;;;;;6.50;3.50;;;;;;;;;;5093888;28;20454;-66
2022/10/25 02:07:26;;;;;;;7.53;3.40;;;;;;;;;;5093323;28;20430;-66
2022/10/25 02:10:00;;;;;;;10.00;5.10;;;;;;;;;;5094368;28;20450;-66
2022/10/25 02:12:30;;;;;;;12.60;3.77;;;;;;;;;;5093225;28;20469;-66
2022/10/25 02:15:01;;;;;;;8.80;3.47;;;;;;;;;;5093339;28;20491;-66
2022/10/25 02:17:30;;;;;;;6.57;4.10;;;;;;;;;;5093570;28;20783;-66
2022/10/25 02:19:59;;;;;;;11.57;3.40;;;;;;;;;;5093203;28;20946;-66
2022/10/25 02:22:27;;;;;;;15.80;3.83;;;;;;;;;;5093099;28;20455;-66
2022/10/25 02:24:55;;;;;;;7.17;3.33;;;;;;;;;;5093105;28;20474;-65
2022/10/25 02:27:23;;;;;;;5.57;2.50;;;;;;;;;;5086760;28;20445;-66
2022/10/25 02:29:50;;;;;;;10.70;3.47;;;;;;;;;;5073217;28;20472;-65
2022/10/25 02:32:18;;;;;;;10.37;3.37;;;;;;;;;;5073043;28;20570;-66
2022/10/25 02:34:48;;;;;;;13.50;3.37;;;;;;;;;;5077161;28;20455;-66
2022/10/25 02:37:15;;;;;;;6.10;3.77;;;;;;;;;;5077463;28;20430;-66
2022/10/25 02:39:43;;;;;;;7.80;3.97;;;;;;;;;;5077136;28;20870;-66
2022/10/25 02:45:14;;;;;;;7.13;3.03;;;;;;;;;;5076880;28;20451;-66
2022/10/25 02:47:41;;;;;;;14.77;3.90;;;;;;;;;;5076828;28;20963;-66
2022/10/25 02:50:10;;;;;;;8.83;4.33;;;;;;;;;;5076904;28;20945;-66
2022/10/25 02:52:37;;;;;;;9.70;3.53;;;;;;;;;;5076779;28;20553;-66
2022/10/25 02:55:04;;;;;;;6.87;3.83;;;;;;;;;;5077307;28;20442;-66
2022/10/25 02:57:33;;;;;;;10.17;3.57;;;;;;;;;;5076423;28;20442;-66
2022/10/25 03:00:00;;;;;;;7.67;3.17;;;;;;;;;;5076457;28;20447;-67
2022/10/25 03:02:27;;;;;;;11.30;4.03;;;;;;;;;;5076308;28;20455;-68
2022/10/25 03:04:55;;;;;;;8.23;2.80;;;;;;;;;;5076236;28;20447;-66
2022/10/25 03:07:23;;;;;;;6.97;3.13;;;;;;;;;;5076226;28;20459;-66
2022/10/25 03:09:50;;;;;;;5.50;2.60;;;;;;;;;;5076588;28;20474;-66
2022/10/25 03:12:17;;;;;;;6.73;2.83;;;;;;;;;;5076525;28;20553;-65
2022/10/25 03:14:45;;;;;;;10.97;4.57;;;;;;;;;;5076334;28;20847;-66
2022/10/25 03:17:12;;;;;;;9.17;3.50;;;;;;;;;;5076356;28;20760;-66
2022/10/25 03:19:39;;;;;;;12.50;3.90;;;;;;;;;;5076711;28;20769;-66
2022/10/25 03:22:06;;;;;;;8.80;3.10;;;;;;;;;;5076541;28;20451;-66
2022/10/25 03:24:35;;;;;;;11.60;3.37;;;;;;;;;;5076971;28;20471;-66
2022/10/25 03:27:02;;;;;;;9.40;4.23;;;;;;;;;;5075900;28;20453;-66
2022/10/25 03:29:29;;;;;;;6.00;2.57;;;;;;;;;;5075950;28;20443;-66
2022/10/25 03:31:56;;;;;;;8.33;3.10;;;;;;;;;;5075818;28;20453;-66
2022/10/25 03:34:23;;;;;;;6.07;3.13;;;;;;;;;;5075900;28;20433;-65
2022/10/25 03:36:51;;;;;;;5.83;3.33;;;;;;;;;;5076112;28;20463;-66
2022/10/25 03:39:18;;;;;;;8.97;3.23;;;;;;;;;;5076182;28;20447;-67
2022/10/25 03:41:46;;;;;;;3.70;3.37;;;;;;;;;;5075698;28;20445;-66
2022/10/25 03:44:14;;;;;;;5.70;2.97;;;;;;;;;;5075262;28;20451;-66
2022/10/25 03:46:41;;;;;;;8.13;3.03;;;;;;;;;;5076045;28;20804;-65
2022/10/25 03:49:08;;;;;;;9.03;3.33;;;;;;;;;;5075970;28;20448;-66
2022/10/25 03:51:35;;;;;;;6.97;2.80;;;;;;;;;;5089021;28;20469;-65
2022/10/25 03:54:05;;;;;;;10.30;3.80;;;;;;;;;;5095476;28;20569;-66
2022/10/25 03:56:32;;;;;;;18.47;3.07;;;;;;;;;;5095216;28;20450;-66
2022/10/25 03:59:01;;;;;;;8.73;3.40;;;;;;;;;;5095166;28;20441;-65
2022/10/25 04:01:28;;;;;;;5.37;2.73;;;;;;;;;;5095490;28;20445;-66
2022/10/25 04:03:55;;;;;;;8.20;2.90;;;;;;;;;;5095226;28;20470;-66
2022/10/25 04:06:22;;;;;;;7.30;2.80;;;;;;;;;;5095595;28;20451;-65
2022/10/25 04:08:49;;;;;;;9.90;2.47;;;;;;;;;;5095311;28;20822;-66
2022/10/25 04:11:16;;;;;;;12.33;3.30;;;;;;;;;;5095266;28;20811;-65
2022/10/25 04:13:44;;;;;;;15.17;3.20;;;;;;;;;;5095091;28;20482;-65
2022/10/25 04:16:13;;;;;;;4.10;2.47;;;;;;;;;;5095274;28;20446;-65
2022/10/25 04:18:40;;;;;;;9.77;3.40;;;;;;;;;;5095152;28;20442;-66
2022/10/25 04:21:07;;;;;;;10.57;2.50;;;;;;;;;;5094998;28;20447;-68
2022/10/25 04:23:34;;;;;;;8.00;3.10;;;;;;;;;;5095055;28;20457;-67
2022/10/25 04:26:01;;;;;;;7.73;2.90;;;;;;;;;;5094869;28;20516;-66
2022/10/25 04:28:29;;;;;;;4.47;2.40;;;;;;;;;;5094858;28;20449;-66
2022/10/25 04:30:56;;;;;;;11.23;3.23;;;;;;;;;;5095078;28;20442;-67
2022/10/25 04:33:24;;;;;;;6.90;2.80;;;;;;;;;;5094947;28;20482;-66
2022/10/25 04:35:56;;;;;;;6.80;3.10;;;;;;;;;;5095029;28;20449;-66
2022/10/25 04:38:23;;;;;;;8.03;2.80;;;;;;;;;;5095227;28;20446;-66
2022/10/25 04:40:55;;;;;;;3.90;2.60;;;;;;;;;;5095196;28;20442;-66
2022/10/25 04:43:23;;;;;;;13.80;3.20;;;;;;;;;;5094828;28;20440;-67
2022/10/25 04:45:50;;;;;;;7.53;3.20;;;;;;;;;;5094826;28;20450;-66
2022/10/25 04:48:17;;;;;;;20.57;3.40;;;;;;;;;;5094968;28;20445;-67
2022/10/25 04:50:46;;;;;;;8.37;2.90;;;;;;;;;;5094983;28;20446;-66
2022/10/25 04:53:13;;;;;;;7.60;3.27;;;;;;;;;;5094731;28;20475;-66
2022/10/25 04:55:40;;;;;;;5.00;3.80;;;;;;;;;;5094434;28;20473;-67
2022/10/25 04:58:07;;;;;;;4.33;3.40;;;;;;;;;;5094433;28;20441;-67
2022/10/25 05:00:35;;;;;;;10.07;3.87;;;;;;;;;;5094496;28;20447;-67
2022/10/25 05:03:02;;;;;;;11.37;3.73;;;;;;;;;;5094635;28;20805;-66
2022/10/25 05:05:29;;;;;;;5.83;2.80;;;;;;;;;;5094648;28;20954;-66
2022/10/25 05:07:58;;;;;;;12.07;3.27;;;;;;;;;;5094603;28;20441;-66
2022/10/25 05:10:25;;;;;;;10.67;3.83;;;;;;;;;;5094713;28;20442;-66
2022/10/25 05:12:54;;;;;;;13.37;4.57;;;;;;;;;;5094461;28;20491;-66
2022/10/25 05:15:21;;;;;;;8.17;3.57;;;;;;;;;;5094484;28;20446;-66
2022/10/25 05:17:49;;;;;;;7.53;3.57;;;;;;;;;;5094487;28;20438;-66
2022/10/25 05:20:16;;;;;;;8.67;3.47;;;;;;;;;;5094411;28;20441;-66
2022/10/25 05:22:43;;;;;;;11.07;4.07;;;;;;;;;;5094466;28;20439;-65
2022/10/25 05:25:12;;;;;;;18.47;4.90;;;;;;;;;;5094417;28;20467;-66
2022/10/25 05:27:39;;;;;;;6.10;3.90;;;;;;;;;;5094391;28;20453;-65
2022/10/25 05:30:07;;;;;;;8.60;4.23;;;;;;;;;;5094223;28;20457;-66
2022/10/25 05:32:34;;;;;;;5.97;3.93;;;;;;;;;;5094756;28;20928;-66
2022/10/25 05:35:01;;;;;;;11.73;4.00;;;;;;;;;;5094068;28;20488;-66
2022/10/25 05:37:28;;;;;;;9.83;4.37;;;;;;;;;;5094268;28;20444;-66
2022/10/25 05:39:55;;;;;;;13.30;4.00;;;;;;;;;;5094062;28;20536;-66
2022/10/25 05:42:24;;;;;;;9.93;5.97;;;;;;;;;;5094511;28;20473;-66
2022/10/25 05:44:52;;;;;;;8.70;3.90;;;;;;;;;;5093957;28;20541;-66
2022/10/25 05:47:19;;;;;;;14.23;4.97;;;;;;;;;;5093972;28;20518;-65
2022/10/25 05:49:46;;;;;;;10.73;4.33;;;;;;;;;;5093821;28;20447;-65
2022/10/25 05:52:14;;;;;;;8.40;4.70;;;;;;;;;;5093613;28;20520;-66
2022/10/25 05:54:41;;;;;;;6.80;4.47;;;;;;;;;;5093698;28;20488;-66
2022/10/25 05:57:09;;;;;;;11.40;6.40;;;;;;;;;;5094094;28;20448;-65
2022/10/25 05:59:37;;;;;;;13.63;6.20;;;;;;;;;;5093722;28;20442;-66
2022/10/25 06:02:04;;;;;;;13.33;5.10;;;;;;;;;;5093754;28;20799;-66
2022/10/25 06:04:31;;;;;;;9.57;5.17;;;;;;;;;;5093551;28;20462;-65
2022/10/25 06:06:59;;;;;;;11.93;5.00;;;;;;;;;;5093654;28;20446;-65
2022/10/25 06:09:26;;;;;;;13.50;5.67;;;;;;;;;;5093658;28;20445;-66
2022/10/25 06:11:53;;;;;;;8.00;5.33;;;;;;;;;;5093699;28;20442;-66
2022/10/25 06:14:20;;;;;;;8.67;5.03;;;;;;;;;;5093821;28;20477;-66
2022/10/25 06:16:49;;;;;;;7.60;5.60;;;;;;;;;;5093724;28;20464;-66
2022/10/25 06:19:16;;;;;;;10.20;5.90;;;;;;;;;;5093642;28;20442;-66
2022/10/25 06:21:43;;;;;;;10.20;6.90;;;;;;;;;;5093272;28;20445;-66
2022/10/25 06:24:10;;;;;;;9.07;5.70;;;;;;;;;;5093297;28;20866;-66
2022/10/25 06:26:37;;;;;;;12.93;5.73;;;;;;;;;;5093955;28;20430;-66
2022/10/25 06:29:05;;;;;;;11.57;5.60;;;;;;;;;;5094075;28;20456;-66
2022/10/25 06:31:33;;;;;;;10.20;5.90;;;;;;;;;;5093775;28;20456;-66
2022/10/25 06:34:02;;;;;;;9.60;5.17;;;;;;;;;;5093271;28;20483;-66
2022/10/25 06:36:30;;;;;;;12.90;5.03;;;;;;;;;;5093888;28;20464;-66
2022/10/25 06:38:57;;;;;;;9.90;5.70;;;;;;;;;;5093336;28;20444;-66
2022/10/25 06:41:26;;;;;;;9.00;5.27;;;;;;;;;;5093782;28;20441;-66
2022/10/25 06:43:53;;;;;;;15.00;5.10;;;;;;;;;;5093647;28;20458;-66
2022/10/25 06:46:22;;;;;;;9.70;5.10;;;;;;;;;;5093352;28;20447;-67
2022/10/25 06:48:49;;;;;;;8.00;4.47;;;;;;;;;;5094097;28;20520;-67
2022/10/25 06:51:18;;;;;;;9.00;4.80;;;;;;;;;;5092971;28;20446;-66
2022/10/25 06:53:45;;;;;;;10.10;5.80;;;;;;;;;;5093030;28;20481;-66
2022/10/25 06:56:13;;;;;;;10.33;6.80;;;;;;;;;;5093101;28;20442;-66
2022/10/25 06:58:40;;;;;;;10.90;5.30;;;;;;;;;;5093667;28;20437;-65
2022/10/25 07:01:08;;;;;;;9.10;5.50;;;;;;;;;;5092721;28;20446;-66
2022/10/25 07:03:35;;;;;;;13.83;5.73;;;;;;;;;;5092737;28;20944;-66
2022/10/25 07:06:04;;;;;;;9.27;5.13;;;;;;;;;;5092552;28;20447;-65
2022/10/25 07:08:32;;;;;;;7.30;5.23;;;;;;;;;;5093308;28;20995;-65
2022/10/25 07:10:59;;;;;;;7.90;5.40;;;;;;;;;;5093012;28;20452;-66
2022/10/25 07:13:27;;;;;;;9.00;5.37;;;;;;;;;;5092673;28;20450;-66
2022/10/25 07:15:54;;;;;;;9.70;5.40;;;;;;;;;;5093149;28;20788;-66
2022/10/25 07:18:21;;;;;;;11.00;5.80;;;;;;;;;;5093747;28;20443;-66
2022/10/25 07:20:49;;;;;;;13.40;5.67;;;;;;;;;;5096836;28;20440;-66
2022/10/25 07:23:16;;;;;;;12.17;5.47;;;;;;;;;;5096451;28;20455;-66
2022/10/25 07:25:46;;;;;;;6.27;5.50;;;;;;;;;;5096128;28;20469;-66
2022/10/25 07:28:13;;;;;;;8.97;5.30;;;;;;;;;;5096619;28;20446;-66
2022/10/25 07:30:45;;;;;;;9.33;5.57;;;;;;;;;;5096509;28;20511;-66
2022/10/25 07:33:12;;;;;;;14.17;6.10;;;;;;;;;;5096304;28;20436;-65
2022/10/25 07:35:39;;;;;;;10.97;6.27;;;;;;;;;;5096453;28;20489;-65
2022/10/25 07:38:06;;;;;;;11.73;6.20;;;;;;;;;;5096770;28;20521;-65
2022/10/25 07:40:34;;;;;;;9.77;5.20;;;;;;;;;;5096483;28;20440;-65
2022/10/25 07:43:02;;;;;;;11.13;6.33;;;;;;;;;;5096392;28;20457;-65
2022/10/25 07:45:29;;;;;;;9.83;5.73;;;;;;;;;;5095933;28;20454;-66
2022/10/25 07:47:56;;;;;;;13.93;5.60;;;;;;;;;;5095932;28;20449;-66
2022/10/25 07:50:24;;;;;;;10.73;6.33;;;;;;;;;;5096550;28;20533;-66
2022/10/25 07:52:51;;;;;;;9.50;6.40;;;;;;;;;;5095841;28;20513;-66
2022/10/25 07:55:18;;;;;;;11.73;6.63;;;;;;;;;;5095940;28;20483;-65
2022/10/25 07:57:45;;;;;;;12.80;6.93;;;;;;;;;;5096031;28;20443;-66
2022/10/25 08:00:14;;;;;;;16.13;5.87;;;;;;;;;;5095913;28;20441;-66
2022/10/25 08:02:42;;;;;;;12.87;6.10;;;;;;;;;;5095622;28;20465;-66
2022/10/25 08:05:10;;;;;;;10.37;6.20;;;;;;;;;;5091350;28;20459;-66
2022/10/25 08:07:37;;;;;;;12.97;5.63;;;;;;;;;;5075547;28;20439;-66
2022/10/25 08:10:04;;;;;;;11.93;5.97;;;;;;;;;;5075292;28;20443;-66
2022/10/25 08:12:31;;;;;;;7.53;5.30;;;;;;;;;;5075491;28;20454;-66
2022/10/25 08:14:58;;;;;;;13.60;6.47;;;;;;;;;;5075436;28;20490;-66
2022/10/25 08:17:27;;;;;;;7.97;5.20;;;;;;;;;;5075346;28;20451;-65
2022/10/25 08:19:55;;;;;;;11.70;4.70;;;;;;;;;;5074945;28;20478;-66
2022/10/25 08:22:22;;;;;;;13.20;5.83;;;;;;;;;;5074958;28;20458;-66
2022/10/25 08:24:49;;;;;;;18.20;5.47;;;;;;;;;;5075517;28;20467;-66
2022/10/25 08:27:16;;;;;;;11.60;4.90;;;;;;;;;;5075127;28;20540;-66
2022/10/25 08:29:44;;;;;;;6.40;4.73;;;;;;;;;;5074758;28;20443;-65
2022/10/25 08:32:11;;;;;;;16.13;5.63;;;;;;;;;;5073958;28;20435;-65
2022/10/25 08:34:39;;;;;;;12.13;5.27;;;;;;;;;;5075556;28;20563;-66
2022/10/25 08:37:07;;;;;;;10.87;4.90;;;;;;;;;;5074769;28;20941;-66
2022/10/25 08:39:34;;;;;;;9.90;4.73;;;;;;;;;;5075014;28;20443;-66
2022/10/25 08:42:02;;;;;;;9.20;4.87;;;;;;;;;;5074824;28;20449;-65
2022/10/25 08:44:38;;;;;;;10.97;3.73;;;;;;;;;;5074906;28;20538;-66
2022/10/25 08:47:08;;;;;;;9.00;4.60;;;;;;;;;;5074539;28;20941;-66
2022/10/25 08:49:41;;;;;;;9.40;4.67;;;;;;;;;;5074464;28;20446;-66
2022/10/25 08:52:15;;;;;;;7.30;4.10;;;;;;;;;;5074373;28;20486;-66
2022/10/25 08:54:45;;;;;;;5.07;4.00;;;;;;;;;;5074621;28;20519;-66
2022/10/25 08:57:15;;;;;;;11.70;4.80;;;;;;;;;;5074984;28;20810;-66
2022/10/25 08:59:44;;;;;;;8.67;4.33;;;;;;;;;;5074890;28;20433;-66
2022/10/25 09:02:16;;;;;;;8.33;3.97;;;;;;;;;;5074308;28;20954;-66
2022/10/25 09:04:43;;;;;;;10.37;4.80;;;;;;;;;;5074404;28;20445;-66
2022/10/25 09:07:16;;;;;;;7.57;3.97;;;;;;;;;;5074138;28;20451;-66
2022/10/25 09:09:49;;;;;;;11.23;4.83;;;;;;;;;;5074231;28;20436;-66
2022/10/25 09:12:20;;;;;;;7.93;4.57;;;;;;;;;;5074020;28;20430;-66
2022/10/25 09:14:49;;;;;;;14.13;5.37;;;;;;;;;;5074474;28;20561;-65
2022/10/25 09:17:18;;;;;;;9.10;5.30;;;;;;;;;;5074351;28;20452;-65
2022/10/25 09:19:53;;;;;;;8.93;5.13;;;;;;;;;;5074218;28;20561;-66
2022/10/25 09:22:25;;;;;;;7.83;5.10;;;;;;;;;;5073823;28;20446;-66
2022/10/25 09:24:55;;;;;;;7.50;4.40;;;;;;;;;;5074704;28;20486;-66
2022/10/25 09:27:26;;;;;;;7.37;4.57;;;;;;;;;;5073926;28;20821;-66
2022/10/25 09:29:55;;;;;;;8.47;4.73;;;;;;;;;;5073952;28;20443;-66
2022/10/25 09:32:24;;;;;;;6.30;4.40;;;;;;;;;;5073461;28;20968;-66
2022/10/25 09:34:54;;;;;;;13.80;4.13;;;;;;;;;;5073527;28;20493;-66
2022/10/25 09:37:26;;;;;;;9.70;4.00;;;;;;;;;;5073883;28;20448;-66
2022/10/25 09:39:55;;;;;;;13.50;5.13;;;;;;;;;;5073524;28;20441;-66
2022/10/25 09:42:24;;;;;;;10.00;5.77;;;;;;;;;;5073315;28;20448;-66
2022/10/25 09:44:55;;;;;;;6.17;4.10;;;;;;;;;;5073545;28;20498;-66
2022/10/25 09:47:28;;;;;;;11.33;4.50;;;;;;;;;;5074487;28;20429;-66
2022/10/25 09:49:58;;;;;;;18.73;5.30;;;;;;;;;;5073900;28;20849;-65
2022/10/25 09:52:30;;;;;;;12.83;4.40;;;;;;;;;;5073371;28;20430;-65
2022/10/25 09:55:06;;;;;;;5.83;3.90;;;;;;;;;;5074102;28;20470;-66
2022/10/25 09:57:33;;;;;;;9.90;4.70;;;;;;;;;;5073590;28;20435;-66
2022/10/25 10:00:00;;;;;;;8.03;3.53;;;;;;;;;;5073284;28;20446;-66
2022/10/25 10:02:28;;;;;;;10.70;4.40;;;;;;;;;;5073540;28;20442;-66
2022/10/25 10:04:55;;;;;;;10.50;4.70;;;;;;;;;;5073496;28;20454;-66
2022/10/25 10:07:23;;;;;;;5.03;3.87;;;;;;;;;;5073891;28;20620;-66
2022/10/25 10:09:53;;;;;;;5.10;4.60;;;;;;;;;;5073247;28;20440;-66
2022/10/25 10:12:24;;;;;;;8.07;3.87;;;;;;;;;;5073016;28;20953;-66
2022/10/25 10:14:56;;;;;;;8.60;4.07;;;;;;;;;;5074011;28;20470;-65
2022/10/25 10:17:24;;;;;;;9.43;4.40;;;;;;;;;;5073398;28;20436;-65
2022/10/25 10:20:08;;;;;;;8.90;4.30;;;;;;;;;;5073510;28;20473;-66
2022/10/25 10:22:37;;;;;;;10.37;5.07;;;;;;;;;;5073364;28;20444;-67
2022/10/25 10:25:06;;;;;;;13.10;4.53;;;;;;;;;;5073152;28;20480;-66
2022/10/25 10:27:33;;;;;;;12.03;4.50;;;;;;;;;;5072957;28;20462;-66
2022/10/25 10:30:01;;;;;;;10.47;5.60;;;;;;;;;;5073274;28;20447;-66
2022/10/25 10:32:32;;;;;;;11.23;5.27;;;;;;;;;;5073990;28;20451;-66
2022/10/25 10:34:59;;;;;;;8.20;5.53;;;;;;;;;;5072985;28;20493;-66
2022/10/25 10:37:27;;;;;;;16.07;6.80;;;;;;;;;;5072889;28;20443;-66
2022/10/25 10:39:55;;;;;;;23.70;7.90;;;;;;;;;;5073225;28;20444;-66
2022/10/25 10:42:24;;;;;;;14.33;5.93;;;;;;;;;;5073190;28;20443;-67
2022/10/25 10:45:09;;;;;;;9.63;5.20;;;;;;;;;;5073827;28;20441;-66
2022/10/25 10:47:37;;;;;;;5.00;4.27;;;;;;;;;;5072735;28;20934;-66
2022/10/25 10:50:10;;;;;;;12.00;4.30;;;;;;;;;;5073414;28;20803;-66
2022/10/25 10:52:40;;;;;;;11.30;4.70;;;;;;;;;;5072620;28;20435;-66
2022/10/25 10:55:16;;;;;;;9.73;5.20;;;;;;;;;;5075694;28;20988;-66
2022/10/25 10:57:45;;;;;;;6.33;4.07;;;;;;;;;;5077676;28;20427;-67
2022/10/25 11:00:21;;;;;;;5.77;4.67;;;;;;;;;;5077328;28;20438;-67
2022/10/25 11:02:48;;;;;;;7.20;4.37;;;;;;;;;;5076885;28;20430;-67
2022/10/25 11:05:19;;;;;;;8.23;4.50;;;;;;;;;;5076453;28;20451;-66
2022/10/25 11:07:53;;;;;;;11.60;4.93;;;;;;;;;;5076921;28;20442;-66
2022/10/25 11:10:22;;;;;;;5.63;4.90;;;;;;;;;;5076738;28;20415;-66
2022/10/25 11:13:04;;;;;;;12.23;4.57;;;;;;;;;;5077152;28;20799;-67
2022/10/25 11:15:34;;;;;;;9.10;4.70;;;;;;;;;;5076649;28;20475;-66
2022/10/25 11:18:05;;;;;;;8.70;4.77;;;;;;;;;;5076565;28;20442;-66
2022/10/25 11:20:41;;;;;;;10.97;4.10;;;;;;;;;;5076308;28;20645;-67
2022/10/25 11:23:13;;;;;;;6.90;4.57;;;;;;;;;;5076454;28;20440;-65
2022/10/25 11:25:44;;;;;;;10.33;4.40;;;;;;;;;;5076801;28;20483;-65
2022/10/25 11:28:26;;;;;;;5.37;4.13;;;;;;;;;;5076080;28;20432;-66
2022/10/25 11:31:01;;;;;;;4.23;3.83;;;;;;;;;;5074268;28;20949;-65
2022/10/25 11:33:33;;;;;;;5.50;3.77;;;;;;;;;;5076309;28;20436;-67
2022/10/25 11:36:09;;;;;;;4.97;4.10;;;;;;;;;;5076669;28;20937;-67
2022/10/25 11:38:42;;;;;;;7.37;3.43;;;;;;;;;;5075827;28;20431;-65
2022/10/25 11:41:18;;;;;;;4.53;2.93;;;;;;;;;;5076633;28;20429;-66
2022/10/25 11:43:53;;;;;;;3.20;2.90;;;;;;;;;;5076277;28;20880;-66
2022/10/25 11:46:25;;;;;;;5.60;3.03;;;;;;;;;;5076214;28;20437;-66
2022/10/25 11:49:05;;;;;;;7.40;3.80;;;;;;;;;;5075733;28;20520;-66
2022/10/25 11:51:35;;;;;;;7.00;3.20;;;;;;;;;;5076125;28;20439;-66
2022/10/25 11:54:10;;;;;;;3.63;3.33;;;;;;;;;;5076681;28;20450;-66
2022/10/25 11:56:42;;;;;;;14.90;4.17;;;;;;;;;;5076148;28;20471;-66
2022/10/25 11:59:15;;;;;;;6.87;3.67;;;;;;;;;;5076060;28;20446;-66
2022/10/25 12:01:53;;;;;;;4.83;3.67;;;;;;;;;;5075996;28;20814;-66
2022/10/25 12:04:34;;;;;;;7.00;3.87;;;;;;;;;;5075475;28;20438;-66
2022/10/25 12:07:05;;;;;;;10.13;4.30;;;;;;;;;;5075440;28;20434;-67
2022/10/25 12:09:36;;;;;;;8.33;4.20;;;;;;;;;;5075549;28;20538;-66
2022/10/25 12:12:06;;;;;;;7.10;4.17;;;;;;;;;;5076074;28;20424;-67
2022/10/25 12:14:35;;;;;;;7.60;3.70;;;;;;;;;;5075406;28;20451;-66
2022/10/25 12:17:06;;;;;;;7.10;3.73;;;;;;;;;;5074989;28;20573;-66
2022/10/25 12:19:36;;;;;;;8.33;4.50;;;;;;;;;;5075722;28;20447;-66
2022/10/25 12:22:05;;;;;;;7.70;3.23;;;;;;;;;;5075403;28;20463;-66
2022/10/25 12:24:37;;;;;;;7.13;3.43;;;;;;;;;;5074796;28;20493;-65
2022/10/25 12:27:04;;;;;;;6.30;3.10;;;;;;;;;;5075513;28;20518;-66
2022/10/25 12:29:34;;;;;;;4.23;2.50;;;;;;;;;;5075447;28;20794;-65
2022/10/25 12:32:03;;;;;;;7.47;3.50;;;;;;;;;;5075158;28;20448;-65
2022/10/25 12:34:39;;;;;;;8.43;4.03;;;;;;;;;;5074995;28;20871;-67
2022/10/25 12:37:08;;;;;;;8.63;3.50;;;;;;;;;;5075098;28;20476;-66
2022/10/25 12:39:39;;;;;;;7.37;3.00;;;;;;;;;;5074786;28;20437;-65
2022/10/25 12:42:07;;;;;;;6.30;2.90;;;;;;;;;;5075169;28;20505;-66
2022/10/25 12:44:49;;;;;;;6.97;3.00;;;;;;;;;;5074570;28;20447;-65
2022/10/25 12:47:26;;;;;;;5.20;2.60;;;;;;;;;;5075140;28;20442;-65
2022/10/25 12:50:07;;;;;;;3.43;2.20;;;;;;;;;;5074447;28;20938;-65
2022/10/25 12:52:35;;;;;;;5.63;2.40;;;;;;;;;;5075499;28;20442;-66
2022/10/25 12:55:17;;;;;;;5.27;3.63;;;;;;;;;;5074681;28;20443;-67
2022/10/25 12:57:49;;;;;;;3.80;2.63;;;;;;;;;;5074435;28;20432;-71
2022/10/25 13:00:17;;;;;;;6.43;3.00;;;;;;;;;;5074659;28;20431;-67
2022/10/25 13:03:10;;;;;;;6.40;2.47;;;;;;;;;;5074754;28;20490;-67
2022/10/25 13:05:50;;;;;;;6.13;2.97;;;;;;;;;;5074045;28;20968;-67
2022/10/25 13:08:19;;;;;;;5.17;3.00;;;;;;;;;;5074581;28;20869;-67
2022/10/25 13:10:48;;;;;;;5.90;2.90;;;;;;;;;;5074533;28;20445;-67
2022/10/25 13:13:18;;;;;;;2.63;2.40;;;;;;;;;;5074940;28;20446;-66
2022/10/25 13:15:47;;;;;;;3.70;2.83;;;;;;;;;;5074363;28;21032;-67
2022/10/25 13:18:26;;;;;;;10.97;2.87;;;;;;;;;;5073996;28;20461;-66
2022/10/25 13:20:55;;;;;;;8.60;2.90;;;;;;;;;;5073469;28;20477;-67
2022/10/25 13:23:41;;;;;;;8.13;2.80;;;;;;;;;;5073890;28;20933;-67
2022/10/25 13:26:09;;;;;;;10.10;2.77;;;;;;;;;;5073970;28;20470;-67
2022/10/25 13:28:44;;;;;;;2.77;2.10;;;;;;;;;;5073739;28;20448;-66
2022/10/25 13:31:31;;;;;;;8.13;3.40;;;;;;;;;;5073840;28;20493;-69
2022/10/25 13:34:17;;;;;;;6.90;3.20;;;;;;;;;;5074142;28;20503;-67
2022/10/25 13:36:50;;;;;;;4.10;3.00;;;;;;;;;;5073977;28;20480;-67
2022/10/25 13:39:21;;;;;;;8.20;2.43;;;;;;;;;;5073468;28;20438;-69
2022/10/25 13:41:48;;;;;;;8.20;2.80;;;;;;;;;;5073847;28;20436;-68
2022/10/25 13:44:19;;;;;;;7.07;2.33;;;;;;;;;;5073529;28;20447;-68
2022/10/25 13:46:47;;;;;;;5.13;2.40;;;;;;;;;;5073460;28;20440;-66
2022/10/25 13:49:28;;;;;;;3.63;2.50;;;;;;;;;;5076483;28;20460;-67
2022/10/25 13:51:57;;;;;;;5.63;2.67;;;;;;;;;;5093960;28;20437;-68
2022/10/25 13:54:24;;;;;;;4.13;2.30;;;;;;;;;;5093782;28;20443;-67
2022/10/25 13:56:52;;;;;;;6.60;2.70;;;;;;;;;;5093704;28;20508;-67
2022/10/25 13:59:36;;;;;;;9.30;3.53;;;;;;;;;;5093443;28;20449;-67
2022/10/25 14:02:16;;;;;;;8.53;2.13;;;;;;;;;;5093593;28;20450;-67
2022/10/25 14:04:44;;;;;;;3.77;2.33;;;;;;;;;;5093672;28;20961;-66
2022/10/25 14:07:29;;;;;;;5.93;2.07;;;;;;;;;;5093343;28;20450;-66
2022/10/25 14:09:58;;;;;;;5.07;2.63;;;;;;;;;;5093595;28;20792;-67
2022/10/25 14:12:26;;;;;;;5.70;2.33;;;;;;;;;;5093637;28;20441;-70
2022/10/25 14:14:57;;;;;;;9.07;2.10;;;;;;;;;;5093597;28;20437;-72
2022/10/25 14:17:29;;;;;;;4.03;2.57;;;;;;;;;;5093438;28;20466;-69
2022/10/25 14:19:58;;;;;;;6.17;2.10;;;;;;;;;;5093169;28;20925;-67
2022/10/25 14:22:28;;;;;;;4.53;2.40;;;;;;;;;;5093450;28;20440;-66
2022/10/25 14:24:55;;;;;;;4.03;2.53;;;;;;;;;;5094039;28;20478;-66
2022/10/25 14:27:28;;;;;;;9.00;2.60;;;;;;;;;;5093105;28;20466;-66
2022/10/25 14:30:10;;;;;;;6.30;2.70;;;;;;;;;;5097687;28;20807;-67
2022/10/25 14:32:38;;;;;;;4.27;2.30;;;;;;;;;;5097694;28;20434;-67
2022/10/25 14:35:05;;;;;;;6.00;2.60;;;;;;;;;;5097285;28;20446;-67
2022/10/25 14:37:32;;;;;;;6.80;2.40;;;;;;;;;;5097501;28;20512;-67
2022/10/25 14:40:00;;;;;;;8.33;2.40;;;;;;;;;;5097598;28;20808;-68
2022/10/25 14:42:28;;;;;;;6.13;2.30;;;;;;;;;;5097454;28;20778;-68
2022/10/25 14:44:55;;;;;;;2.67;2.23;;;;;;;;;;5097563;28;20450;-69
2022/10/25 14:47:30;;;;;;;5.97;2.40;;;;;;;;;;5097095;28;20445;-72
2022/10/25 14:49:58;;;;;;;6.03;2.70;;;;;;;;;;5097769;28;20451;-69
2022/10/25 14:52:25;;;;;;;7.63;3.20;;;;;;;;;;5097224;28;20447;-66
2022/10/25 14:54:55;;;;;;;5.10;2.30;;;;;;;;;;5097493;28;20449;-66
2022/10/25 14:57:23;;;;;;;5.03;1.90;;;;;;;;;;5097015;28;20508;-66